Time;durP1;ratioP1;P1;durP2;ratioP2;P2;SDS_P1;SDS_P2;PMS_P1;PMS_P2;Temp;Humidity;BMP_temperature;BMP_pressure;BME280_temperature;BME280_humidity;BME280_pressure;Samples;Min_cycle;Max_cycle;Signal;HPM_P1;HPM_P2
2022/06/12 00:08:54;;;;;;;6.9;11.1;;;;;;;-133;95.1;65270;;;;
2022/06/12 00:19:52;;;;;;;6.1;10.3;;;;;;;-133;96.3;65270;;;;
2022/06/12 00:29:52;;;;;;;6.1;10.3;;;;;;;-133;97.7;65270;;;;
2022/06/12 00:39:52;;;;;;;6.1;10.3;;;;;;;-133;97.6;65270;;;;
2022/06/12 00:50:52;;;;;;;5.6;7.4;;;;;;;-133;97.8;65270;;;;
2022/06/12 01:00:52;;;;;;;5.6;7.4;;;;;;;-133;99.1;65270;;;;
2022/06/12 01:10:52;;;;;;;5.6;7.4;;;;;;;-133;98.4;65260;;;;
2022/06/12 01:21:52;;;;;;;5.5;9.8;;;;;;;-133;98.5;65260;;;;
2022/06/12 01:31:52;;;;;;;5.5;9.8;;;;;;;-133;99.1;65280;;;;
2022/06/12 01:41:52;;;;;;;5.5;9.8;;;;;;;-133;99.9;65270;;;;
2022/06/12 01:52:52;;;;;;;6;8.9;;;;;;;-133;99.4;65270;;;;
2022/06/12 02:03:52;;;;;;;6;8.9;;;;;;;-133;99.7;65270;;;;
2022/06/12 02:13:52;;;;;;;6;8.9;;;;;;;-133;99.6;65270;;;;
2022/06/12 02:23:52;;;;;;;7;11.2;;;;;;;-133;100;65280;;;;
2022/06/12 02:34:52;;;;;;;7;11.2;;;;;;;-133;100;65270;;;;
2022/06/12 02:45:52;;;;;;;7;11.2;;;;;;;-133;100;65270;;;;
2022/06/12 02:55:52;;;;;;;44.6;50.7;;;;;;;-133;100;65270;;;;
2022/06/12 03:06:52;;;;;;;44.6;50.7;;;;;;;-133;100;65260;;;;
2022/06/12 03:16:52;;;;;;;22.4;27.2;;;;;;;-133;100;65270;;;;
2022/06/12 03:27:53;;;;;;;22.4;27.2;;;;;;;-133;100;65260;;;;
2022/06/12 03:38:52;;;;;;;22.4;27.2;;;;;;;-133;100;65270;;;;
2022/06/12 03:48:52;;;;;;;13;17.6;;;;;;;-133;100;65260;;;;
2022/06/12 03:58:52;;;;;;;13;17.6;;;;;;;-133;100;65260;;;;
2022/06/12 04:08:53;;;;;;;13;17.6;;;;;;;-133;100;65260;;;;
2022/06/12 04:18:52;;;;;;;9.7;12.3;;;;;;;-133;99.6;65260;;;;
2022/06/12 04:29:52;;;;;;;9.7;12.3;;;;;;;-133;98.7;65250;;;;
2022/06/12 04:40:52;;;;;;;9.7;12.3;;;;;;;-133;96.5;65250;;;;
2022/06/12 04:50:52;;;;;;;6.1;10.6;;;;;;;-133;92.9;65250;;;;
2022/06/12 05:01:52;;;;;;;6.1;10.6;;;;;;;-133;89.6;65240;;;;
2022/06/12 05:12:52;;;;;;;6.1;10.6;;;;;;;-133;87.1;65240;;;;
2022/06/12 05:23:52;;;;;;;5.3;7.5;;;;;;;-133;86.7;65240;;;;
2022/06/12 05:33:53;;;;;;;5.3;7.5;;;;;;;-133;86.1;65240;;;;
2022/06/12 05:44:52;;;;;;;5.3;7.5;;;;;;;-133;84.2;65240;;;;
2022/06/12 05:55:52;;;;;;;6.2;10.3;;;;;;;-133;81.3;65240;;;;
2022/06/12 06:05:52;;;;;;;6.2;10.3;;;;;;;-133;78.4;65240;;;;
2022/06/12 06:15:52;;;;;;;6.2;10.3;;;;;;;-133;77.6;65240;;;;
2022/06/12 06:25:52;;;;;;;6.3;13.3;;;;;;;-133;77.4;65230;;;;
2022/06/12 06:36:52;;;;;;;6.3;13.3;;;;;;;-133;76.8;65230;;;;
2022/06/12 06:47:52;;;;;;;6.4;9.6;;;;;;;-133;75.1;65230;;;;
2022/06/12 06:57:52;;;;;;;6.4;9.6;;;;;;;-133;73.3;65230;;;;
2022/06/12 07:08:52;;;;;;;6.4;9.6;;;;;;;-133;70.4;65230;;;;
2022/06/12 07:19:52;;;;;;;5.7;10.2;;;;;;;-133;66.3;65230;;;;
2022/06/12 07:30:52;;;;;;;5.7;10.2;;;;;;;-133;66.5;65220;;;;
2022/06/12 07:40:52;;;;;;;5.7;10.2;;;;;;;-133;63.9;65230;;;;
2022/06/12 07:51:52;;;;;;;4.4;7.5;;;;;;;-133;63.6;65220;;;;
2022/06/12 08:02:52;;;;;;;4.4;7.5;;;;;;;-133;61.5;65220;;;;
2022/06/12 08:12:52;;;;;;;4.4;7.5;;;;;;;-133;59.7;65220;;;;
2022/06/12 08:23:52;;;;;;;3.6;6.8;;;;;;;-133;56;65220;;;;
2022/06/12 08:34:52;;;;;;;3.6;6.8;;;;;;;-133;60;65220;;;;
2022/06/12 08:45:52;;;;;;;3.6;6.8;;;;;;;-133;55.5;65220;;;;
2022/06/12 08:55:52;;;;;;;2.8;4.7;;;;;;;-133;54.8;65220;;;;
2022/06/12 09:05:52;;;;;;;2.8;4.7;;;;;;;-133;54.1;65220;;;;
2022/06/12 09:15:52;;;;;;;2.8;4.7;;;;;;;-133;53;65220;;;;
2022/06/12 09:26:52;;;;;;;2.6;8;;;;;;;-133;55;65220;;;;
2022/06/12 09:38:24;;;;;;;2.6;8;;;;;;;-133;52.9;65220;;;;
2022/06/12 09:48:52;;;;;;;3;5.5;;;;;;;-133;49.2;65220;;;;
2022/06/12 09:58:52;;;;;;;3;5.5;;;;;;;-133;49.3;65220;;;;
2022/06/12 10:08:52;;;;;;;3;5.5;;;;;;;-133;48.3;65220;;;;
2022/06/12 10:19:52;;;;;;;3.1;5.9;;;;;;;-133;47.9;65220;;;;
2022/06/12 10:30:52;;;;;;;3.1;5.9;;;;;;;-133;47;65220;;;;
2022/06/12 10:40:52;;;;;;;3.1;5.9;;;;;;;-133;49.7;65210;;;;
2022/06/12 10:51:52;;;;;;;2.7;5.3;;;;;;;-133;47.1;65210;;;;
2022/06/12 11:02:52;;;;;;;2.7;5.3;;;;;;;-133;45.8;65220;;;;
2022/06/12 11:13:52;;;;;;;2.7;5.3;;;;;;;-133;44.2;65210;;;;
2022/06/12 11:23:52;;;;;;;2.8;7.4;;;;;;;-133;42.3;65210;;;;
2022/06/12 11:33:53;;;;;;;2.8;7.4;;;;;;;-133;41.9;65210;;;;
2022/06/12 11:44:52;;;;;;;2.8;7.4;;;;;;;-133;44.9;65210;;;;
2022/06/12 11:54:52;;;;;;;2.2;4.7;;;;;;;-133;44.3;65210;;;;
2022/06/12 12:05:52;;;;;;;2.2;4.7;;;;;;;-133;43.2;65210;;;;
2022/06/12 12:15:52;;;;;;;2.2;4.7;;;;;;;-133;42.4;65220;;;;
2022/06/12 12:26:52;;;;;;;1.5;3.2;;;;;;;-133;39.9;65220;;;;
2022/06/12 12:47:52;;;;;;;1.6;3.8;;;;;;;-133;42.8;65220;;;;
2022/06/12 12:58:53;;;;;;;1.6;3.8;;;;;;;-133;40;65220;;;;
2022/06/12 13:09:52;;;;;;;1.6;3.8;;;;;;;-133;38.7;65220;;;;
2022/06/12 13:19:52;;;;;;;1.7;3.7;;;;;;;-133;41.2;65220;;;;
2022/06/12 13:30:52;;;;;;;1.7;3.7;;;;;;;-133;38.5;65220;;;;
2022/06/12 13:41:52;;;;;;;1.7;3.7;;;;;;;-133;39.6;65220;;;;
2022/06/12 13:51:52;;;;;;;1.6;3.6;;;;;;;-133;40.2;65220;;;;
2022/06/12 14:01:52;;;;;;;1.6;3.6;;;;;;;-133;41.9;65220;;;;
2022/06/12 14:12:52;;;;;;;1.6;3.6;;;;;;;-133;37.2;65220;;;;
2022/06/12 14:23:52;;;;;;;2;4.3;;;;;;;-133;36.4;65220;;;;
2022/06/12 14:34:52;;;;;;;2;4.3;;;;;;;-133;36.1;65220;;;;
2022/06/12 14:44:52;;;;;;;2;4.3;;;;;;;-133;35.5;65220;;;;
2022/06/12 14:54:52;;;;;;;1.4;2.8;;;;;;;-133;34.6;65220;;;;
2022/06/12 15:04:52;;;;;;;1.4;2.8;;;;;;;-133;30.8;65220;;;;
2022/06/12 15:14:52;;;;;;;1.4;2.8;;;;;;;-133;31.4;65220;;;;
2022/06/12 15:35:52;;;;;;;1.9;4.8;;;;;;;-133;38;65230;;;;
2022/06/12 15:45:52;;;;;;;1.9;4.8;;;;;;;-133;33;65220;;;;
2022/06/12 15:55:52;;;;;;;1.7;7.3;;;;;;;-133;34.9;65230;;;;
2022/06/12 16:05:52;;;;;;;1.7;7.3;;;;;;;-133;35.4;65230;;;;
2022/06/12 16:16:52;;;;;;;1.7;7.3;;;;;;;-133;34.2;65230;;;;
2022/06/12 16:27:52;;;;;;;1.8;4.6;;;;;;;-133;31;65220;;;;
2022/06/12 16:37:52;;;;;;;1.8;4.6;;;;;;;-133;28.5;65220;;;;
2022/06/12 16:48:52;;;;;;;1.6;4.2;;;;;;;-133;29.3;65230;;;;
2022/06/12 16:58:52;;;;;;;1.6;4.2;;;;;;;-133;28.6;65230;;;;
2022/06/12 17:08:52;;;;;;;1.6;4.2;;;;;;;-133;31;65230;;;;
2022/06/12 17:20:57;;;;;;;1.5;3.3;;;;;;;-133;36.2;65240;;;;
2022/06/12 17:29:52;;;;;;;1.5;3.3;;;;;;;-133;37.7;65240;;;;
2022/06/12 17:40:52;;;;;;;1.5;3.3;;;;;;;-133;33.3;65230;;;;
2022/06/12 17:51:52;;;;;;;2.3;4.3;;;;;;;-133;33.8;65240;;;;
2022/06/12 18:01:52;;;;;;;2.3;4.3;;;;;;;-133;34.2;65240;;;;
2022/06/12 18:12:52;;;;;;;2.3;4.3;;;;;;;-133;41.2;65240;;;;
2022/06/12 18:22:52;;;;;;;2;4.7;;;;;;;-133;45.3;65250;;;;
2022/06/12 18:32:52;;;;;;;2;4.7;;;;;;;-133;47.4;65250;;;;
2022/06/12 18:42:52;;;;;;;2;4.7;;;;;;;-133;52.1;65250;;;;
2022/06/12 18:53:52;;;;;;;2.4;5.4;;;;;;;-133;57.8;65250;;;;
2022/06/12 19:04:52;;;;;;;2.4;5.4;;;;;;;-133;60.6;65250;;;;
2022/06/12 19:15:52;;;;;;;2.4;5.4;;;;;;;-133;65.3;65260;;;;
2022/06/12 19:26:52;;;;;;;3.1;8.5;;;;;;;-133;67;65260;;;;
2022/06/12 19:36:52;;;;;;;3.1;8.5;;;;;;;-133;71.8;65260;;;;
2022/06/12 19:47:52;;;;;;;3.5;6;;;;;;;-133;72.9;65260;;;;
2022/06/12 19:57:52;;;;;;;3.5;6;;;;;;;-133;72.6;65260;;;;
2022/06/12 20:08:54;;;;;;;3.5;6;;;;;;;-133;75.5;65260;;;;
2022/06/12 20:19:52;;;;;;;3.8;6.1;;;;;;;-133;77.3;65260;;;;
2022/06/12 20:30:52;;;;;;;3.8;6.1;;;;;;;-133;77.8;65250;;;;
2022/06/12 20:40:55;;;;;;;3.8;6.1;;;;;;;-133;77.3;65260;;;;
2022/06/12 20:50:52;;;;;;;5.5;7.2;;;;;;;-133;78.5;65270;;;;
2022/06/12 21:00:53;;;;;;;5.5;7.2;;;;;;;-133;83.5;65270;;;;
2022/06/12 21:10:52;;;;;;;5.5;7.2;;;;;;;-133;81.9;65270;;;;
2022/06/12 21:21:52;;;;;;;4.7;7.4;;;;;;;-133;82.9;65270;;;;
2022/06/12 21:31:52;;;;;;;4.7;7.4;;;;;;;-133;84.4;65270;;;;
2022/06/12 21:41:52;;;;;;;4.7;7.4;;;;;;;-133;83.8;65270;;;;
2022/06/12 22:03:52;;;;;;;6;8.5;;;;;;;-133;88.7;65270;;;;
2022/06/12 22:13:52;;;;;;;6;8.5;;;;;;;-133;89;65270;;;;
2022/06/12 22:24:52;;;;;;;9.3;12.1;;;;;;;-133;89.1;65270;;;;
2022/06/12 22:34:54;;;;;;;9.3;12.1;;;;;;;-133;91.2;65270;;;;
2022/06/12 22:45:52;;;;;;;9.3;12.1;;;;;;;-133;92.5;65270;;;;
2022/06/12 22:55:52;;;;;;;8.9;10.7;;;;;;;-133;92.6;65270;;;;
2022/06/12 23:05:52;;;;;;;8.9;10.7;;;;;;;-133;91.8;65270;;;;
2022/06/12 23:16:52;;;;;;;8.9;10.7;;;;;;;-133;93.9;65270;;;;
2022/06/12 23:26:52;;;;;;;8.1;10.5;;;;;;;-133;93.3;65270;;;;
2022/06/12 23:37:52;;;;;;;8.1;10.5;;;;;;;-133;94.7;65270;;;;
2022/06/12 23:48:52;;;;;;;8.2;10.8;;;;;;;-133;95.3;65270;;;;
2022/06/12 23:59:52;;;;;;;8.2;10.8;;;;;;;-133;96.6;65260;;;;
